Arkadelphia, Arkansas
Current Conditions -  °F | °C
As of 3:56 PM on Friday 19 Dec 2014 (Local Time) from KADF Reporting Station
Overcast Overcast  
Wind Chill: 41°   Ceiling: 1000
Heat Index: 45°   Visibility: 8mi
Dew Point: 44°   Wind: 7mph
Humidity: 96%   Direction: 30°NNE
Pressure: 30.2"   Gusts: NA
Location:  34.12°N, 93.05°W
Report Text: KADF 192156Z AUTO 03006KT 8SM OVC010 07/07 A3020 RMK AO2 T00720066 SLP242
Loading
Personal Weather Stations






























Interactive Weather Map New forecast layout! Learn more

10-Day Weather Forecast

Advertisements
Track Severe Weather on mobile